| time (UTC) | temp F | wind direction | speed knots | gust knots | rain 1hr in | rain 24hr in | rain mn in | humidity % | barometer mb |
| 20260502163001 | 60 | 281 | 2.6 | 9.6 | 0.00 | 0.00 | 0.00 | 41 | 1013.0 |
| 20260502161549 | 59 | 302 | 4.3 | 10.4 | 0.00 | 0.00 | 0.00 | 42 | 1013.1 |
| 20260502151537 | 55 | 274 | 1.7 | 6.1 | 0.00 | 0.00 | 0.00 | 47 | 1014.0 |
| 20260502123043 | 44 | 269 | 0.0 | 2.6 | 0.00 | 0.00 | 0.00 | 58 | 1016.1 |
| 20260502121542 | 43 | 262 | 0.9 | 3.5 | 0.00 | 0.00 | 0.00 | 57 | 1016.1 |
| 20260502114521 | 42 | 246 | 0.0 | 2.6 | 0.00 | 0.00 | 0.00 | 59 | 1016.2 |
| 20260502113020 | 42 | 261 | 0.0 | 1.7 | 0.00 | 0.00 | 0.00 | 59 | 1016.4 |
| 20260502111506 | 42 | 142 | 0.0 | 4.3 | 0.00 | 0.00 | 0.00 | 59 | 1016.4 |
| 20260502110007 | 41 | 236 | 0.0 | 3.5 | 0.00 | 0.00 | 0.00 | 60 | 1016.6 |
| 20260502104504 | 41 | 274 | 0.0 | 2.6 | 0.00 | 0.00 | 0.00 | 60 | 1016.7 |
| 20260502103002 | 40 | 207 | 0.0 | 0.9 | 0.00 | 0.00 | 0.00 | 62 | 1016.8 |
| 20260502101606 | 40 | 10 | 0.0 | 0.9 | 0.00 | 0.00 | 0.00 | 61 | 1016.9 |
| 20260502070059 | 43 | 229 | 0.0 | 0.0 | 0.00 | 0.00 | 0.00 | 49 | 1017.9 |
| 20260502064557 | 44 | 229 | 0.0 | 0.9 | 0.00 | 0.00 | 0.00 | 48 | 1017.8 |
| 20260502063053 | 44 | 228 | 0.0 | 0.9 | 0.00 | 0.00 | 0.00 | 49 | 1017.9 |
| 20260502061551 | 43 | 252 | 0.0 | 0.9 | 0.00 | 0.00 | 0.00 | 49 | 1018.0 |
| 20260502060039 | 43 | 253 | 0.0 | 0.9 | 0.00 | 0.00 | 0.00 | 49 | 1018.1 |
| 20260502054539 | 43 | 253 | 0.0 | 0.9 | 0.00 | 0.00 | 0.00 | 49 | 1018.1 |
| 20260502053037 | 43 | 253 | 0.0 | 0.9 | 0.00 | 0.00 | 0.00 | 49 | 1018.1 |
| 20260502051537 | 43 | 244 | 0.0 | 0.9 | 0.00 | 0.00 | 0.00 | 51 | 1018.2 |
| 20260502050036 | 42 | 267 | 0.0 | 0.9 | 0.00 | 0.00 | 0.00 | 53 | 1018.2 |
| 20260502044534 | 41 | 267 | 0.0 | 0.0 | 0.00 | 0.00 | 0.00 | 53 | 1018.3 |
| 20260502043031 | 42 | 267 | 0.0 | 0.9 | 0.00 | 0.00 | 0.00 | 52 | 1018.4 |
| 20260502041534 | 43 | 267 | 0.0 | 0.0 | 0.00 | 0.00 | 0.00 | 51 | 1018.4 |
| 20260502040011 | 43 | 267 | 0.0 | 0.9 | 0.00 | 0.00 | 0.00 | 50 | 1018.5 |
| 20260502034510 | 43 | 269 | 0.0 | 0.9 | 0.00 | 0.00 | 0.00 | 50 | 1018.5 |
| 20260502033052 | 43 | 267 | 0.0 | 0.9 | 0.00 | 0.00 | 0.00 | 51 | 1018.6 |
| 20260502031551 | 43 | 267 | 0.0 | 0.9 | 0.00 | 0.00 | 0.00 | 51 | 1018.6 |
| 20260502030031 | 43 | 267 | 0.0 | 0.9 | 0.00 | 0.00 | 0.00 | 51 | 1018.5 |
| 20260502024529 | 44 | 268 | 0.0 | 0.9 | 0.00 | 0.00 | 0.00 | 50 | 1018.4 |
| 20260502023015 | 44 | 266 | 0.0 | 0.9 | 0.00 | 0.00 | 0.00 | 49 | 1018.3 |
| 20260502021515 | 45 | 266 | 0.0 | 0.9 | 0.00 | 0.00 | 0.00 | 49 | 1018.3 |
| 20260502020011 | 45 | 266 | 0.0 | 0.9 | 0.00 | 0.00 | 0.00 | 49 | 1018.3 |
| 20260502014527 | 46 | 311 | 0.0 | 0.9 | 0.00 | 0.00 | 0.00 | 47 | 1018.2 |
| 20260502013004 | 47 | 314 | 0.0 | 0.9 | 0.00 | 0.00 | 0.00 | 45 | 1018.2 |
| 20260502011501 | 48 | 312 | 0.0 | 1.7 | 0.00 | 0.00 | 0.00 | 43 | 1018.1 |
| 20260502004604 | 50 | 326 | 0.9 | 4.3 | 0.00 | 0.00 | 0.00 | 41 | 1017.9 |
| 20260502003044 | 50 | 291 | 1.7 | 5.2 | 0.00 | 0.00 | 0.00 | 41 | 1017.8 |
| 20260502001644 | 50 | 340 | 1.7 | 3.5 | 0.00 | 0.00 | 0.00 | 41 | 1017.8 |
| 20260502000053 | 51 | 312 | 0.9 | 4.3 | 0.00 | 0.00 | 0.00 | 40 | 1017.8 |
| 20260501234543 | 51 | 315 | 2.6 | 5.2 | 0.00 | 0.00 | 0.00 | 40 | 1017.8 |
| 20260501233041 | 52 | 305 | 2.6 | 4.3 | 0.00 | 0.00 | 0.00 | 39 | 1017.8 |
| 20260501231547 | 52 | 309 | 1.7 | 5.2 | 0.00 | 0.00 | 0.00 | 39 | 1017.7 |
| 20260501230042 | 52 | 322 | 1.7 | 5.2 | 0.00 | 0.00 | 0.00 | 38 | 1017.8 |
| 20260501224539 | 53 | 236 | 2.6 | 7.0 | 0.00 | 0.00 | 0.00 | 38 | 1017.9 |
| 20260501223026 | 53 | 291 | 2.6 | 6.1 | 0.00 | 0.00 | 0.00 | 37 | 1017.8 |
| 20260501221529 | 53 | 186 | 0.9 | 6.1 | 0.00 | 0.00 | 0.00 | 37 | 1017.9 |
| 20260501220025 | 53 | 320 | 4.3 | 7.8 | 0.00 | 0.00 | 0.00 | 38 | 1018.0 |
| 20260501214533 | 53 | 329 | 1.7 | 7.0 | 0.00 | 0.00 | 0.00 | 38 | 1018.2 |
| 20260501213021 | 53 | 335 | 1.7 | 5.2 | 0.00 | 0.00 | 0.00 | 38 | 1018.2 |
| 20260501211520 | 52 | 315 | 2.6 | 7.0 | 0.00 | 0.00 | 0.00 | 37 | 1018.3 |
| 20260501210023 | 52 | 304 | 2.6 | 7.0 | 0.00 | 0.00 | 0.00 | 39 | 1018.3 |
| 20260501204516 | 51 | 31 | 1.7 | 9.6 | 0.00 | 0.00 | 0.00 | 40 | 1018.5 |
| 20260501203003 | 51 | 29 | 2.6 | 6.1 | 0.00 | 0.00 | 0.00 | 40 | 1018.6 |
| 20260501201501 | 51 | 333 | 3.5 | 6.1 | 0.00 | 0.00 | 0.00 | 38 | 1018.8 |
| 20260501200001 | 51 | 41 | 3.5 | 7.0 | 0.00 | 0.00 | 0.00 | 38 | 1018.7 |
| 20260501194559 | 51 | 341 | 1.7 | 7.0 | 0.00 | 0.00 | 0.00 | 40 | 1018.8 |
| 20260501193101 | 50 | 328 | 4.3 | 7.8 | 0.00 | 0.00 | 0.00 | 40 | 1018.9 |
| 20260501191556 | 50 | 322 | 3.5 | 8.7 | 0.00 | 0.00 | 0.00 | 40 | 1019.0 |
| 20260501190053 | 50 | 52 | 1.7 | 9.6 | 0.00 | 0.00 | 0.00 | 40 | 1018.9 |
| 20260501184553 | 49 | 308 | 2.6 | 7.0 | 0.00 | 0.00 | 0.00 | 39 | 1018.9 |
| 20260501183047 | 48 | 322 | 2.6 | 7.8 | 0.00 | 0.00 | 0.00 | 40 | 1019.1 |
| 20260501181542 | 49 | 17 | 1.7 | 6.1 | 0.00 | 0.00 | 0.00 | 40 | 1019.1 |
| 20260501180042 | 49 | 5 | 1.7 | 6.1 | 0.00 | 0.00 | 0.00 | 40 | 1019.2 |